SILO ALERT LOG


Silo ID Alert Type Alert Message Silo Type Points Depth (mm) Strength Temperature (°C) Humidity (%) Height (mm) Volume (㎥) Weight (t) Flag Time
DJSAD02 Humidity 습도센서 측정값이 80% 초과 387 1136 4265 1.7 86.1 7643 316.404 200.031 11 2024-01-13 06:39:38.000
DJHNR08 Temperature 온도센서 측정값이 0도 미만 375 5406 2193 -1 66.1 2273 323.452 204.486 11 2024-01-13 06:39:36.000
DJSAD11 Humidity 습도센서 측정값이 80% 초과 327 1645 3295 1 80.4 5934 844.467 533.872 11 2024-01-13 06:39:35.000
DJHNR01 Humidity 습도센서 측정값이 80% 초과 호퍼 471 4315 4916 3.9 99.9 11064 472.262 298.564 13 2024-01-13 06:39:33.000
DJSSD05 Temperature 온도센서 측정값이 0도 미만 836 2544 4868 -45.4 43.8 5535 770.375 487.031 0 2024-01-13 06:39:33.000
DJSSD01 Humidity 습도센서 측정값이 80% 초과 794 2570 4662 4.6 84.1 5509 766.789 484.764 0 2024-01-13 06:39:33.000
DJSSD04 Temperature 온도센서 상태 이상 0 8200 0 -999 -999 -120 -16.702 0 31 2024-01-13 06:39:33.000
DJHNR11 Temperature 온도센서 측정값이 0도 미만 호퍼 101 5298 234 -5.2 76.4 5081 55.669 35.194 11 2024-01-13 06:39:32.000
DJSSD11 Temperature 온도센서 측정값이 0도 미만 호퍼 445 7402 153 -5.7 75.9 3827 28.635 15.606 0 2024-01-13 06:39:32.000
DJDJD04 Humidity 습도센서 측정값이 80% 초과 277 4215 4470 2.3 82.1 3464 419.788 265.39 11 2024-01-13 06:39:32.000
DJSAD16 Humidity 습도센서 측정값이 80% 초과 91 6598 3430 3.6 80.6 981 97.744 61.794 11 2024-01-13 06:39:32.000
DJSSD09 Temperature 온도센서 측정값이 0도 미만 120 3045 3352 -45.4 0 4634 645.051 407.801 11 2024-01-13 06:39:32.000
DJSAD08 Humidity 습도센서 측정값이 80% 초과 594 2298 4870 7.4 83.7 5281 751.538 475.122 0 2024-01-13 06:39:32.000
DJHNR14 Temperature 온도센서 측정값이 0도 미만 호퍼 36 3029 4437 -4.7 73.3 7350 104.593 66.124 11 2024-01-13 06:39:31.000
DJSAD18 Humidity 습도센서 측정값이 80% 초과 116 1367 5802 4.1 80.8 6212 618.588 391.071 11 2024-01-13 06:39:31.000
DJHNR13 Temperature 온도센서 측정값이 0도 미만 호퍼 8 3498 3103 -4.2 69.2 6881 94.48 59.73 0 2024-01-13 06:39:31.000
DJDJD01 Temperature 온도센서 측정값이 0도 미만 307 6766 5968 -1.3 79.1 913 110.695 69.981 11 2024-01-13 06:39:30.000
DJSAD17 Humidity 습도센서 측정값이 80% 초과 447 3119 4754 3.3 81.1 4460 444.13 280.779 0 2024-01-13 06:39:30.000
DJHNR04 Temperature 온도센서 측정값이 0도 미만 호퍼 0 15500 5042 -0.9 68.8 -119 0 0 29 2024-01-13 06:39:29.000
DJHNR03 Temperature 온도센서 상태 이상 호퍼 0 15500 0 -999 -999 -119 0 0 31 2024-01-13 06:39:24.000

[첫 페이지] [9967] [9968] [9969] [9970] 9971 [9972] [9973] [9974] [9975] [마지막 페이지]